Terminal Aerodrome Forecast
Issued by NWS Shreveport, LA

Home | Current Version | Previous Version | Text Only | Print | Product List | Glossary On
Versions: 1 2 3 4 5 6 7 8 9 10 11 12 13 14 15 16 17 18 19 20 21 22 23 24 25 26 27 28
000
FTUS44 KSHV 240009 AAA
TAFLFK
TAF AMD
KLFK 240009Z 2400/2424 31006KT P6SM BKN008 BKN021
     FM240700 31006KT P6SM SCT015
     FM241500 31016G24KT P6SM FEW250=

USA.gov is the U.S. government's official web portal to all federal, state and local government web resources and services.